Time;durP1;ratioP1;P1;durP2;ratioP2;P2;SDS_P1;SDS_P2;PMS_P1;PMS_P2;Temp;Humidity;BMP_temperature;BMP_pressure;BME280_temperature;BME280_humidity;BME280_pressure;Samples;Min_cycle;Max_cycle;Signal;HPM_P1;HPM_P2
2021/08/20 00:01:23;;;;;;;5.50;2.40;;;15.60;98.00;;;;;;5036910;28;20088;-71
2021/08/20 00:03:49;;;;;;;4.15;2.10;;;15.60;98.00;;;;;;5026392;28;20026;-72
2021/08/20 00:06:15;;;;;;;5.25;2.30;;;15.50;98.00;;;;;;5032258;28;20109;-70
2021/08/20 00:08:41;;;;;;;6.80;2.30;;;15.60;98.00;;;;;;5033414;28;20118;-71
2021/08/20 00:11:07;;;;;;;6.32;2.22;;;15.60;98.00;;;;;;5028241;28;20075;-71
2021/08/20 00:13:33;;;;;;;7.20;2.40;;;15.50;98.00;;;;;;5032031;28;20037;-70
2021/08/20 00:15:59;;;;;;;4.50;2.33;;;15.50;98.00;;;;;;5031660;28;20030;-71
2021/08/20 00:18:26;;;;;;;3.95;2.08;;;15.50;98.00;;;;;;5034758;28;20041;-70
2021/08/20 00:20:52;;;;;;;6.25;1.77;;;15.50;98.00;;;;;;5026377;28;20036;-70
2021/08/20 00:23:18;;;;;;;7.20;2.22;;;15.50;98.00;;;;;;5030843;28;20342;-70
2021/08/20 00:25:44;;;;;;;6.47;2.45;;;15.50;98.00;;;;;;5037040;28;20593;-71
2021/08/20 00:28:10;;;;;;;4.38;2.33;;;15.50;98.00;;;;;;5022268;28;20034;-72
2021/08/20 00:30:37;;;;;;;4.47;2.20;;;15.40;98.00;;;;;;5027244;28;20389;-70
2021/08/20 00:33:03;;;;;;;5.88;2.35;;;15.40;98.00;;;;;;5028151;28;20110;-71
2021/08/20 00:35:28;;;;;;;6.22;2.17;;;15.40;98.00;;;;;;5018018;28;20034;-72
2021/08/20 00:37:54;;;;;;;3.75;1.90;;;15.40;98.00;;;;;;5030248;28;20021;-71
2021/08/20 00:40:20;;;;;;;4.55;2.30;;;15.40;98.00;;;;;;5029210;28;20435;-70
2021/08/20 00:42:47;;;;;;;6.32;2.40;;;15.40;98.00;;;;;;5022273;28;20103;-70
2021/08/20 00:45:13;;;;;;;5.28;2.17;;;15.40;98.00;;;;;;5025755;28;20540;-71
2021/08/20 00:47:39;;;;;;;4.88;2.35;;;15.40;98.00;;;;;;5033472;28;20112;-71
2021/08/20 00:50:07;;;;;;;6.18;2.70;;;15.40;98.00;;;;;;5029353;28;20037;-70
2021/08/20 00:52:36;;;;;;;3.88;2.10;;;15.40;98.00;;;;;;5026531;28;20029;-71
2021/08/20 00:55:04;;;;;;;4.90;2.45;;;15.40;98.00;;;;;;5048927;28;20052;-71
2021/08/20 00:57:30;;;;;;;4.63;2.25;;;15.40;98.00;;;;;;5020900;28;20381;-71
2021/08/20 00:59:56;;;;;;;4.97;2.20;;;15.40;98.00;;;;;;5023361;28;20017;-69
2021/08/20 01:02:23;;;;;;;4.28;2.20;;;15.40;98.00;;;;;;5028931;28;20022;-69
2021/08/20 01:04:49;;;;;;;7.50;1.95;;;15.50;98.00;;;;;;5024307;28;20104;-70
2021/08/20 01:07:16;;;;;;;5.00;2.17;;;15.60;98.00;;;;;;5033329;28;20147;-72
2021/08/20 01:09:42;;;;;;;5.07;2.25;;;15.60;98.00;;;;;;5035157;28;20029;-71
2021/08/20 01:12:08;;;;;;;4.72;2.22;;;15.60;98.00;;;;;;5021473;28;20053;-72
2021/08/20 01:14:36;;;;;;;4.25;2.17;;;15.50;98.00;;;;;;5020169;28;20033;-71
2021/08/20 01:17:05;;;;;;;4.43;2.10;;;15.50;98.00;;;;;;5033406;28;20063;-71
2021/08/20 01:19:34;;;;;;;3.53;1.70;;;15.50;98.00;;;;;;5033620;28;20094;-70
2021/08/20 01:22:01;;;;;;;6.43;2.53;;;15.50;98.00;;;;;;5029570;28;20033;-70
2021/08/20 01:24:28;;;;;;;5.63;2.25;;;15.50;98.00;;;;;;5016596;28;20054;-70
2021/08/20 01:26:55;;;;;;;4.95;2.00;;;15.50;98.00;;;;;;5015348;28;20030;-70
2021/08/20 01:29:23;;;;;;;4.50;2.05;;;15.50;98.00;;;;;;5016503;28;20025;-70
2021/08/20 01:31:49;;;;;;;5.47;2.30;;;15.40;98.00;;;;;;5032963;28;20322;-72
2021/08/20 01:34:15;;;;;;;4.85;2.10;;;15.40;98.00;;;;;;5016376;28;20030;-71
2021/08/20 01:36:41;;;;;;;5.32;2.47;;;15.40;98.00;;;;;;5031951;28;20286;-71
2021/08/20 01:39:07;;;;;;;3.58;1.90;;;15.30;98.00;;;;;;5034725;28;20021;-70
2021/08/20 01:41:33;;;;;;;5.50;2.63;;;15.30;98.00;;;;;;5019013;28;20026;-70
2021/08/20 01:44:00;;;;;;;4.75;2.30;;;15.30;98.00;;;;;;5020522;28;20028;-71
2021/08/20 01:46:26;;;;;;;4.63;2.40;;;15.30;98.00;;;;;;5021012;28;20033;-71
2021/08/20 01:48:56;;;;;;;4.75;2.30;;;15.30;98.00;;;;;;5016033;28;20131;-71
2021/08/20 01:51:26;;;;;;;5.22;2.47;;;15.30;98.00;;;;;;5030783;28;20025;-71
2021/08/20 01:53:55;;;;;;;6.00;2.80;;;15.30;98.00;;;;;;5017650;28;20037;-72
2021/08/20 01:56:26;;;;;;;6.18;2.85;;;15.30;98.00;;;;;;5030877;28;20021;-71
2021/08/20 01:58:53;;;;;;;6.47;2.50;;;15.30;98.00;;;;;;5029432;28;20120;-71
2021/08/20 02:01:19;;;;;;;4.68;2.65;;;15.30;98.00;;;;;;5021084;28;20018;-72
2021/08/20 02:03:45;;;;;;;6.13;3.10;;;15.30;98.00;;;;;;5019242;28;20338;-71
2021/08/20 02:06:11;;;;;;;8.63;2.83;;;15.30;98.00;;;;;;5016582;28;20036;-72
2021/08/20 02:08:40;;;;;;;4.82;2.42;;;15.30;98.00;;;;;;5028713;28;20083;-71
2021/08/20 02:11:06;;;;;;;5.82;2.75;;;15.30;98.00;;;;;;5021612;28;20030;-71
2021/08/20 02:13:35;;;;;;;7.53;2.47;;;15.30;98.00;;;;;;5018809;28;20406;-72
2021/08/20 02:16:01;;;;;;;4.72;2.22;;;15.30;98.00;;;;;;5031691;28;20037;-72
2021/08/20 02:18:27;;;;;;;4.30;2.40;;;15.20;98.00;;;;;;5038437;28;20025;-72
2021/08/20 02:20:53;;;;;;;4.53;2.25;;;15.20;98.00;;;;;;5031727;28;20022;-71
2021/08/20 02:23:19;;;;;;;4.18;2.00;;;15.20;98.00;;;;;;5031605;28;20093;-72
2021/08/20 02:25:45;;;;;;;4.22;2.00;;;15.20;98.00;;;;;;5034835;28;20095;-71
2021/08/20 02:28:10;;;;;;;3.92;2.10;;;15.20;98.00;;;;;;5029354;28;20026;-72
2021/08/20 02:30:36;;;;;;;4.30;1.95;;;15.20;98.00;;;;;;5017445;28;20084;-72
2021/08/20 02:33:02;;;;;;;3.40;1.77;;;15.10;98.00;;;;;;5024879;28;20030;-72
2021/08/20 02:35:28;;;;;;;4.95;1.92;;;15.10;98.00;;;;;;5031111;28;20489;-72
2021/08/20 02:37:55;;;;;;;5.40;1.92;;;15.00;98.00;;;;;;5016190;28;20022;-72
2021/08/20 02:40:21;;;;;;;4.55;2.30;;;15.10;98.00;;;;;;5027278;28;20072;-72
2021/08/20 02:42:51;;;;;;;8.35;2.60;;;15.10;98.00;;;;;;5021721;28;20022;-72
2021/08/20 02:45:16;;;;;;;5.10;2.28;;;15.10;98.00;;;;;;5030394;28;20034;-71
2021/08/20 02:47:42;;;;;;;4.95;2.53;;;15.10;98.00;;;;;;5031666;28;20041;-72
2021/08/20 02:50:08;;;;;;;5.43;2.10;;;15.00;98.00;;;;;;5031632;28;20026;-72
2021/08/20 02:52:34;;;;;;;5.90;2.88;;;15.00;98.00;;;;;;5020279;28;20087;-71
2021/08/20 02:55:00;;;;;;;6.18;2.78;;;15.00;98.00;;;;;;5032880;28;20349;-72
2021/08/20 02:57:29;;;;;;;5.22;2.47;;;15.00;98.00;;;;;;5014712;28;20018;-71
2021/08/20 02:59:55;;;;;;;4.65;2.13;;;15.00;98.00;;;;;;5018106;28;20022;-72
2021/08/20 03:02:21;;;;;;;5.28;2.28;;;15.00;98.00;;;;;;5033072;28;20121;-72
2021/08/20 03:04:47;;;;;;;4.05;2.10;;;15.00;98.00;;;;;;5016278;28;20069;-71
2021/08/20 03:07:13;;;;;;;4.13;2.20;;;15.00;98.00;;;;;;5035677;28;20029;-72
2021/08/20 03:09:39;;;;;;;5.32;2.47;;;15.00;98.00;;;;;;5035589;28;20171;-72
2021/08/20 03:12:06;;;;;;;6.20;2.88;;;15.00;98.00;;;;;;5014925;28;20030;-72
2021/08/20 03:14:31;;;;;;;5.85;3.17;;;15.00;98.00;;;;;;5026497;28;20041;-72
2021/08/20 03:16:57;;;;;;;5.60;2.80;;;15.10;98.00;;;;;;5035453;28;20030;-72
2021/08/20 03:19:26;;;;;;;7.88;2.38;;;15.10;98.00;;;;;;5024708;28;20030;-72
2021/08/20 03:21:51;;;;;;;4.90;2.28;;;15.10;98.00;;;;;;5032660;28;20036;-72
2021/08/20 03:24:17;;;;;;;4.97;2.55;;;15.00;98.00;;;;;;5026398;28;20030;-73
2021/08/20 03:26:43;;;;;;;5.03;2.30;;;15.00;98.00;;;;;;5021164;28;20026;-72
2021/08/20 03:29:08;;;;;;;4.60;2.20;;;15.00;98.00;;;;;;5022608;28;20079;-72
2021/08/20 03:31:34;;;;;;;4.55;2.28;;;14.90;98.00;;;;;;5020571;28;20411;-71
2021/08/20 03:34:00;;;;;;;4.32;2.38;;;14.90;98.00;;;;;;5024915;28;20022;-71
2021/08/20 03:36:27;;;;;;;4.63;2.50;;;14.90;98.00;;;;;;5030090;28;20063;-71
2021/08/20 03:38:53;;;;;;;4.10;2.20;;;14.90;98.00;;;;;;5031473;28;20313;-71
2021/08/20 03:41:20;;;;;;;5.80;2.78;;;14.90;98.00;;;;;;5026355;28;20362;-71
2021/08/20 03:43:46;;;;;;;4.43;2.35;;;14.90;98.00;;;;;;5030515;28;21436;-72
2021/08/20 03:46:13;;;;;;;4.75;2.28;;;14.90;98.00;;;;;;5032302;28;20066;-71
2021/08/20 03:48:39;;;;;;;6.10;2.40;;;14.90;98.00;;;;;;5037978;28;20318;-71
2021/08/20 03:51:05;;;;;;;4.93;2.60;;;14.90;98.00;;;;;;5029173;28;20033;-71
2021/08/20 03:53:31;;;;;;;4.28;2.55;;;15.00;98.00;;;;;;5032350;28;20078;-71
2021/08/20 03:55:57;;;;;;;10.50;2.85;;;15.00;98.00;;;;;;5044772;28;20698;-71
2021/08/20 03:58:22;;;;;;;4.88;2.58;;;15.00;98.00;;;;;;5058589;28;20052;-71
2021/08/20 04:00:52;;;;;;;4.05;2.20;;;14.90;98.00;;;;;;5032088;28;20033;-71
2021/08/20 04:03:18;;;;;;;4.47;2.63;;;14.90;98.00;;;;;;5027262;28;20022;-71
2021/08/20 04:05:44;;;;;;;5.57;2.45;;;14.90;98.00;;;;;;5022512;28;20026;-71
2021/08/20 04:08:10;;;;;;;6.07;2.47;;;14.90;98.00;;;;;;5021125;28;20041;-71
2021/08/20 04:10:36;;;;;;;8.73;3.00;;;14.80;98.00;;;;;;5037579;28;20021;-71
2021/08/20 04:13:01;;;;;;;6.00;2.78;;;14.80;98.00;;;;;;5030144;28;20102;-71
2021/08/20 04:15:27;;;;;;;7.05;2.90;;;14.70;98.00;;;;;;5031295;28;20030;-70
2021/08/20 04:17:53;;;;;;;4.88;2.60;;;14.70;98.00;;;;;;5032751;28;20028;-71
2021/08/20 04:20:18;;;;;;;5.82;2.90;;;14.70;98.00;;;;;;5037743;28;20108;-72
2021/08/20 04:22:44;;;;;;;6.20;2.95;;;14.70;98.00;;;;;;5028831;28;20050;-71
2021/08/20 04:25:11;;;;;;;5.40;2.80;;;14.80;98.00;;;;;;5030581;28;20058;-72
2021/08/20 04:27:37;;;;;;;4.15;2.33;;;14.80;98.00;;;;;;5034552;28;20029;-72
2021/08/20 04:30:03;;;;;;;4.65;2.80;;;14.80;98.00;;;;;;5036961;28;20083;-72
2021/08/20 04:32:28;;;;;;;7.80;3.08;;;14.80;98.00;;;;;;5026391;28;20030;-72
2021/08/20 04:34:54;;;;;;;5.35;2.72;;;14.80;98.00;;;;;;5037494;28;20321;-72
2021/08/20 04:37:22;;;;;;;4.22;2.53;;;14.80;98.00;;;;;;5028750;28;20438;-72
2021/08/20 04:39:48;;;;;;;5.13;2.60;;;14.90;98.00;;;;;;5023874;28;20326;-72
2021/08/20 04:42:14;;;;;;;4.40;2.50;;;14.80;98.00;;;;;;5026453;28;20029;-72
2021/08/20 04:44:39;;;;;;;5.63;2.58;;;14.80;98.00;;;;;;5032139;28;20326;-72
2021/08/20 04:47:05;;;;;;;4.85;2.65;;;14.80;98.00;;;;;;5033670;28;20503;-72
2021/08/20 04:49:31;;;;;;;4.78;2.90;;;14.80;98.00;;;;;;5037376;28;20483;-71
2021/08/20 04:51:57;;;;;;;5.72;2.80;;;14.80;98.00;;;;;;5031387;28;20113;-72
2021/08/20 04:54:22;;;;;;;5.47;2.60;;;14.80;98.00;;;;;;5024440;28;20040;-72
2021/08/20 04:56:49;;;;;;;5.15;2.95;;;14.80;98.00;;;;;;5035244;28;20329;-72
2021/08/20 04:59:15;;;;;;;4.68;2.72;;;14.90;98.00;;;;;;5033182;28;20022;-72
2021/08/20 05:01:41;;;;;;;5.22;2.50;;;14.90;98.00;;;;;;5034782;28;20076;-72
2021/08/20 05:04:08;;;;;;;6.82;2.60;;;15.00;98.00;;;;;;5030684;28;20418;-72
2021/08/20 05:06:36;;;;;;;4.50;2.50;;;15.00;98.00;;;;;;5035522;28;20033;-72
2021/08/20 05:09:03;;;;;;;4.97;2.80;;;15.10;98.00;;;;;;5028601;28;20033;-71
2021/08/20 05:11:29;;;;;;;5.63;3.13;;;15.20;98.00;;;;;;5035248;28;20033;-72
2021/08/20 05:13:55;;;;;;;6.00;2.85;;;15.20;98.00;;;;;;5027912;28;20029;-72
2021/08/20 05:16:21;;;;;;;4.97;2.45;;;15.20;98.00;;;;;;5036806;28;20552;-71
2021/08/20 05:18:46;;;;;;;5.05;2.45;;;15.30;98.00;;;;;;5036982;28;20140;-71
2021/08/20 05:21:12;;;;;;;5.07;2.35;;;15.40;98.00;;;;;;5034826;28;20330;-72
2021/08/20 05:23:37;;;;;;;8.32;2.50;;;15.40;98.00;;;;;;5025415;28;20054;-72
2021/08/20 05:26:03;;;;;;;4.25;2.10;;;15.50;98.00;;;;;;5031817;28;20029;-72
2021/08/20 05:28:29;;;;;;;4.38;2.25;;;15.50;98.00;;;;;;5027285;28;20095;-72
2021/08/20 05:30:54;;;;;;;5.00;2.40;;;15.50;98.00;;;;;;5035734;28;20026;-72
2021/08/20 05:33:20;;;;;;;5.13;2.03;;;15.60;98.00;;;;;;5028339;28;20030;-72
2021/08/20 05:35:47;;;;;;;7.43;2.63;;;15.60;98.00;;;;;;5026195;28;20033;-72
2021/08/20 05:38:15;;;;;;;5.15;2.45;;;15.70;98.00;;;;;;5029006;28;20049;-72
2021/08/20 05:40:41;;;;;;;5.63;2.10;;;15.80;98.00;;;;;;5035298;28;20083;-73
2021/08/20 05:43:07;;;;;;;4.75;2.10;;;15.90;98.00;;;;;;5034456;28;20369;-72
2021/08/20 05:45:37;;;;;;;4.47;2.20;;;16.10;98.00;;;;;;5035006;28;20029;-72
2021/08/20 05:48:06;;;;;;;4.68;2.42;;;16.00;98.00;;;;;;5033148;28;20388;-71
2021/08/20 05:50:33;;;;;;;4.65;2.55;;;16.00;98.00;;;;;;5036062;28;20109;-71
2021/08/20 05:52:58;;;;;;;5.38;2.35;;;16.10;98.00;;;;;;5030790;28;20101;-71
2021/08/20 05:55:25;;;;;;;4.88;2.13;;;16.30;98.00;;;;;;5015628;28;20116;-71
2021/08/20 05:57:51;;;;;;;3.78;2.00;;;16.40;98.00;;;;;;5029776;28;20025;-71
2021/08/20 06:00:17;;;;;;;6.70;2.60;;;16.60;98.00;;;;;;5035921;28;20022;-72
2021/08/20 06:02:43;;;;;;;3.53;1.90;;;16.70;98.00;;;;;;5032198;28;20029;-72
2021/08/20 06:05:09;;;;;;;3.97;1.98;;;16.80;98.00;;;;;;5018698;28;20026;-72
2021/08/20 06:07:35;;;;;;;5.57;1.73;;;17.00;98.00;;;;;;5034476;28;20033;-72
2021/08/20 06:10:01;;;;;;;3.47;1.88;;;17.20;98.00;;;;;;5035345;28;20029;-72
2021/08/20 06:12:29;;;;;;;4.35;1.80;;;17.50;98.00;;;;;;5038213;28;20037;-72
2021/08/20 06:14:54;;;;;;;4.63;2.08;;;17.50;97.50;;;;;;5047366;28;20433;-72
2021/08/20 06:17:20;;;;;;;4.35;2.28;;;17.70;97.40;;;;;;5034616;28;20132;-72
2021/08/20 06:19:45;;;;;;;4.07;1.70;;;17.80;97.20;;;;;;5036038;28;20021;-72
2021/08/20 06:22:11;;;;;;;4.07;2.00;;;17.90;97.10;;;;;;5034644;28;20057;-72
2021/08/20 06:24:37;;;;;;;5.00;1.70;;;18.10;96.50;;;;;;5032622;28;20057;-72
2021/08/20 06:27:03;;;;;;;4.40;1.85;;;18.30;96.40;;;;;;5033460;28;20026;-72
2021/08/20 06:29:28;;;;;;;4.10;1.70;;;18.50;95.40;;;;;;5021165;28;20033;-72
2021/08/20 06:31:54;;;;;;;4.90;1.80;;;18.60;94.20;;;;;;5018916;28;20022;-72
2021/08/20 06:34:19;;;;;;;3.35;1.80;;;18.80;94.50;;;;;;5035474;28;20018;-72
2021/08/20 06:36:45;;;;;;;3.72;1.85;;;18.90;94.20;;;;;;5041516;28;20017;-72
2021/08/20 06:39:11;;;;;;;4.28;2.13;;;18.90;93.90;;;;;;5034183;28;20079;-72
2021/08/20 06:41:38;;;;;;;4.78;1.73;;;18.80;93.40;;;;;;5032838;28;20105;-72
2021/08/20 06:44:04;;;;;;;4.22;2.10;;;18.80;93.90;;;;;;5019412;28;20034;-72
2021/08/20 06:46:30;;;;;;;5.35;2.10;;;18.90;94.10;;;;;;5019204;28;20021;-72
2021/08/20 06:48:56;;;;;;;4.60;1.90;;;19.30;93.70;;;;;;5035816;28;20357;-72
2021/08/20 06:51:22;;;;;;;3.70;1.60;;;19.60;92.10;;;;;;5035868;28;20083;-72
2021/08/20 06:53:48;;;;;;;3.95;2.00;;;19.80;92.00;;;;;;5033788;28;20032;-71
2021/08/20 06:56:13;;;;;;;4.50;2.10;;;20.20;91.00;;;;;;5029483;28;20022;-72
2021/08/20 06:58:39;;;;;;;5.07;1.80;;;20.50;89.90;;;;;;5034961;28;20099;-72
2021/08/20 07:01:06;;;;;;;5.50;2.00;;;20.40;87.50;;;;;;5034243;28;20017;-72
2021/08/20 07:03:32;;;;;;;4.70;2.05;;;20.40;87.40;;;;;;5035164;28;20018;-72
2021/08/20 07:05:58;;;;;;;5.20;2.08;;;20.60;87.70;;;;;;5019038;28;20030;-71
2021/08/20 07:08:23;;;;;;;3.22;1.55;;;20.80;85.70;;;;;;5028286;28;20331;-72
2021/08/20 07:10:49;;;;;;;4.45;1.95;;;21.10;83.90;;;;;;5018691;28;20068;-71
2021/08/20 07:13:15;;;;;;;4.38;1.73;;;21.10;84.10;;;;;;5024133;28;20104;-72
2021/08/20 07:15:41;;;;;;;4.15;1.92;;;21.10;86.20;;;;;;5024971;28;20321;-72
2021/08/20 07:18:07;;;;;;;3.42;1.85;;;21.10;86.10;;;;;;5029768;28;20361;-72
2021/08/20 07:20:33;;;;;;;3.90;1.65;;;21.20;85.60;;;;;;5024380;28;20009;-71
2021/08/20 07:22:58;;;;;;;4.55;1.95;;;21.20;86.80;;;;;;5030533;28;20139;-71
2021/08/20 07:25:24;;;;;;;3.80;1.60;;;21.30;84.60;;;;;;5031745;28;20497;-71
2021/08/20 07:27:50;;;;;;;6.05;2.05;;;21.20;85.90;;;;;;5030237;28;20032;-72
2021/08/20 07:30:15;;;;;;;4.70;1.98;;;21.20;86.20;;;;;;5029846;28;20414;-71
2021/08/20 07:32:41;;;;;;;4.90;2.08;;;21.30;85.50;;;;;;5035606;28;20060;-72
2021/08/20 07:35:07;;;;;;;4.43;1.67;;;21.30;86.00;;;;;;5031688;28;20053;-72
2021/08/20 07:37:33;;;;;;;6.03;2.20;;;21.30;85.90;;;;;;5029651;28;20035;-72
2021/08/20 07:40:00;;;;;;;5.03;2.30;;;21.50;85.50;;;;;;5038232;28;20093;-72
2021/08/20 07:42:25;;;;;;;4.22;1.90;;;21.20;85.60;;;;;;5029742;28;20038;-72
2021/08/20 07:44:53;;;;;;;5.32;2.28;;;21.10;86.10;;;;;;5024732;28;20037;-72
2021/08/20 07:47:18;;;;;;;5.22;2.30;;;21.30;85.60;;;;;;5036087;28;20041;-72
2021/08/20 07:49:44;;;;;;;4.25;1.90;;;21.10;86.70;;;;;;5029939;28;20038;-72
2021/08/20 07:52:10;;;;;;;5.53;2.22;;;21.50;86.40;;;;;;5031597;28;20030;-72
2021/08/20 07:54:35;;;;;;;3.80;1.80;;;22.20;85.80;;;;;;5019945;28;20187;-72
2021/08/20 07:57:01;;;;;;;4.80;2.28;;;22.70;84.40;;;;;;5018993;28;20034;-72
2021/08/20 07:59:27;;;;;;;4.32;1.98;;;22.70;82.30;;;;;;5033755;28;20112;-72
2021/08/20 08:01:52;;;;;;;4.43;2.17;;;22.20;83.00;;;;;;5025276;28;20164;-72
2021/08/20 08:04:18;;;;;;;6.78;2.60;;;21.60;84.10;;;;;;5036898;28;20119;-72
2021/08/20 08:06:43;;;;;;;4.63;2.28;;;21.40;85.10;;;;;;5031770;28;20025;-72
2021/08/20 08:09:09;;;;;;;5.70;2.38;;;21.30;86.20;;;;;;5034510;28;20429;-72
2021/08/20 08:11:35;;;;;;;4.55;2.25;;;21.50;86.10;;;;;;5028322;28;20053;-72
2021/08/20 08:14:06;;;;;;;7.80;2.40;;;21.60;85.40;;;;;;5021522;28;20111;-72
2021/08/20 08:16:34;;;;;;;4.88;2.10;;;21.80;85.00;;;;;;5021390;28;20079;-72
2021/08/20 08:19:00;;;;;;;4.05;1.83;;;21.90;83.90;;;;;;5022861;28;20109;-72
2021/08/20 08:21:29;;;;;;;6.03;2.08;;;21.70;83.60;;;;;;5029679;28;20026;-72
2021/08/20 08:23:56;;;;;;;4.68;1.90;;;21.80;83.00;;;;;;5026325;28;20114;-72
2021/08/20 08:26:23;;;;;;;3.92;1.67;;;21.70;82.80;;;;;;5030530;28;20022;-72
2021/08/20 08:28:49;;;;;;;4.28;2.00;;;22.20;81.00;;;;;;5019271;28;20355;-72
2021/08/20 08:31:15;;;;;;;3.03;1.52;;;22.90;79.80;;;;;;5018868;28;20382;-72
2021/08/20 08:33:41;;;;;;;4.18;2.22;;;24.20;77.10;;;;;;5018178;28;20033;-72
2021/08/20 08:36:07;;;;;;;3.80;1.80;;;24.50;75.40;;;;;;5034848;28;20422;-72
2021/08/20 08:38:32;;;;;;;6.22;2.08;;;24.10;77.10;;;;;;5024474;28;20108;-72
2021/08/20 08:40:58;;;;;;;5.30;1.90;;;24.80;75.00;;;;;;5026800;28;20025;-72
2021/08/20 08:43:24;;;;;;;4.50;2.00;;;26.00;72.40;;;;;;5025946;28;20037;-72
2021/08/20 08:45:49;;;;;;;6.30;1.83;;;26.60;71.40;;;;;;5019507;28;20033;-72
2021/08/20 08:48:15;;;;;;;5.55;2.47;;;27.50;68.70;;;;;;5024931;28;20109;-72
2021/08/20 08:50:46;;;;;;;5.05;2.05;;;27.50;67.40;;;;;;5021134;28;20041;-72
2021/08/20 08:53:12;;;;;;;4.20;1.95;;;27.10;68.40;;;;;;5018978;28;20040;-72
2021/08/20 08:55:38;;;;;;;4.20;1.83;;;27.20;69.30;;;;;;5023081;28;20619;-72
2021/08/20 08:58:07;;;;;;;5.15;1.95;;;27.30;69.00;;;;;;5027739;28;20117;-73
2021/08/20 09:00:35;;;;;;;3.97;1.98;;;27.70;68.50;;;;;;5026546;28;20033;-72
2021/08/20 09:03:02;;;;;;;4.65;1.92;;;28.00;67.70;;;;;;5023583;28;20026;-73
2021/08/20 09:05:42;;;;;;;4.78;1.98;;;28.10;65.50;;;;;;5020360;28;20041;-72
2021/08/20 09:08:11;;;;;;;4.70;2.33;;;27.30;67.30;;;;;;5022971;28;20409;-72
2021/08/20 09:10:37;;;;;;;4.82;1.65;;;27.70;68.40;;;;;;5019169;28;20071;-70
2021/08/20 09:13:03;;;;;;;2.58;1.30;;;28.70;66.80;;;;;;5022036;28;20041;-72
2021/08/20 09:15:32;;;;;;;4.57;1.75;;;30.30;61.50;;;;;;5020877;28;20377;-71
2021/08/20 09:18:02;;;;;;;3.90;1.77;;;30.70;59.80;;;;;;5021582;28;20666;-71
2021/08/20 09:20:29;;;;;;;6.25;2.20;;;30.80;60.40;;;;;;5024888;28;20422;-71
2021/08/20 09:22:57;;;;;;;3.92;1.92;;;29.90;60.80;;;;;;5028123;28;20042;-71
2021/08/20 09:25:40;;;;;;;4.05;1.48;;;28.80;62.90;;;;;;5025648;28;20116;-71
2021/08/20 09:28:22;;;;;;;3.53;1.53;;;28.30;62.90;;;;;;5025558;28;20418;-71
2021/08/20 09:30:54;;;;;;;3.88;1.80;;;27.60;64.60;;;;;;5019907;28;20048;-72
2021/08/20 09:33:23;;;;;;;4.30;1.88;;;27.00;66.10;;;;;;5021034;28;20049;-71
2021/08/20 09:35:59;;;;;;;3.15;1.73;;;27.00;65.90;;;;;;5035435;28;20029;-72
2021/08/20 09:38:26;;;;;;;4.60;1.88;;;26.70;66.70;;;;;;5018308;28;20033;-71
2021/08/20 09:40:57;;;;;;;3.53;1.45;;;26.70;67.40;;;;;;5022873;28;20037;-71
2021/08/20 09:43:28;;;;;;;4.25;1.80;;;27.90;66.50;;;;;;5018663;28;20314;-71
2021/08/20 09:46:00;;;;;;;4.15;1.80;;;29.30;62.40;;;;;;5026018;28;20029;-71
2021/08/20 09:48:50;;;;;;;4.60;1.77;;;29.40;60.30;;;;;;5025975;28;20511;-71
2021/08/20 09:51:33;;;;;;;4.38;1.95;;;28.60;59.50;;;;;;5020037;28;20030;-71
2021/08/20 09:54:04;;;;;;;4.07;1.77;;;28.40;62.50;;;;;;5021305;28;20152;-71
2021/08/20 09:56:30;;;;;;;3.17;1.55;;;28.60;59.70;;;;;;5020549;28;20574;-72
2021/08/20 09:58:59;;;;;;;3.45;1.58;;;28.20;61.50;;;;;;5021020;28;20042;-72
2021/08/20 10:01:29;;;;;;;3.75;1.80;;;28.20;61.70;;;;;;5022368;28;20040;-72
2021/08/20 10:04:00;;;;;;;4.47;1.85;;;28.90;59.20;;;;;;5020485;28;20397;-72
2021/08/20 10:06:32;;;;;;;3.70;1.90;;;29.60;61.00;;;;;;5017771;28;20030;-72
2021/08/20 10:09:04;;;;;;;5.40;2.20;;;29.90;58.40;;;;;;5024517;28;20032;-72
2021/08/20 10:11:33;;;;;;;4.10;1.70;;;30.30;60.30;;;;;;5039889;28;20682;-72
2021/08/20 10:14:02;;;;;;;5.18;1.85;;;30.90;57.40;;;;;;5024394;28;20047;-72
2021/08/20 10:16:33;;;;;;;4.85;1.92;;;30.10;57.60;;;;;;5021230;28;20354;-71
2021/08/20 10:19:01;;;;;;;4.35;1.83;;;29.80;59.90;;;;;;5034233;28;20322;-71
2021/08/20 10:21:29;;;;;;;3.58;1.77;;;30.30;59.50;;;;;;5016656;28;20041;-71
2021/08/20 10:23:55;;;;;;;5.70;1.80;;;30.60;56.30;;;;;;5023125;28;20049;-71
2021/08/20 10:26:21;;;;;;;4.00;1.70;;;29.70;59.10;;;;;;5020632;28;20524;-71
2021/08/20 10:28:48;;;;;;;7.43;1.88;;;29.60;61.20;;;;;;5019411;28;20026;-71
2021/08/20 10:31:15;;;;;;;4.38;1.80;;;29.60;61.90;;;;;;5023440;28;20379;-72
2021/08/20 10:33:41;;;;;;;2.92;1.42;;;29.70;61.00;;;;;;5034647;28;20429;-72
2021/08/20 10:36:09;;;;;;;4.00;1.90;;;29.60;60.10;;;;;;5030963;28;20032;-71
2021/08/20 10:38:47;;;;;;;7.65;2.00;;;27.80;63.50;;;;;;5025362;28;20061;-71
2021/08/20 10:41:22;;;;;;;4.13;2.05;;;26.60;66.30;;;;;;5021533;28;20449;-72
2021/08/20 10:43:50;;;;;;;6.22;2.38;;;24.90;68.60;;;;;;5024894;28;20030;-72
2021/08/20 10:46:31;;;;;;;4.22;2.25;;;23.70;71.20;;;;;;5024457;28;20061;-72
2021/08/20 10:49:21;;;;;;;4.30;2.10;;;24.10;72.30;;;;;;5029192;28;20067;-72
2021/08/20 10:51:52;;;;;;;4.15;2.05;;;25.70;68.30;;;;;;5017597;28;20425;-72
2021/08/20 10:54:40;;;;;;;5.25;1.88;;;26.40;64.80;;;;;;5033204;28;20414;-71
2021/08/20 10:57:35;;;;;;;4.25;2.00;;;27.10;64.60;;;;;;5022126;28;20026;-72
2021/08/20 11:00:22;;;;;;;5.55;1.85;;;28.00;63.20;;;;;;5048202;28;20017;-71
2021/08/20 11:02:53;;;;;;;6.70;1.73;;;29.30;59.40;;;;;;5038726;28;20029;-69
2021/08/20 11:05:34;;;;;;;4.72;2.15;;;29.10;59.00;;;;;;5037622;28;20026;-71
2021/08/20 11:08:00;;;;;;;4.03;1.80;;;29.30;59.60;;;;;;5028456;28;20037;-72
2021/08/20 11:10:25;;;;;;;4.32;1.95;;;29.20;58.00;;;;;;5037727;28;20029;-71
2021/08/20 11:12:51;;;;;;;4.25;1.73;;;28.80;59.40;;;;;;5030079;28;20284;-72
2021/08/20 11:15:23;;;;;;;4.03;1.80;;;28.60;58.40;;;;;;5019826;28;20999;-73
2021/08/20 11:17:54;;;;;;;4.80;2.00;;;28.10;61.60;;;;;;5027656;28;20037;-71
2021/08/20 11:20:21;;;;;;;4.53;1.80;;;27.70;59.40;;;;;;5039490;28;20041;-71
2021/08/20 11:23:11;;;;;;;4.32;2.00;;;28.10;60.00;;;;;;5037483;28;20037;-72
2021/08/20 11:25:38;;;;;;;4.57;1.88;;;28.70;60.20;;;;;;5031854;28;20045;-71
2021/08/20 11:28:26;;;;;;;3.78;2.00;;;28.80;58.70;;;;;;5039060;28;20414;-71
2021/08/20 11:30:59;;;;;;;4.00;1.85;;;28.20;60.70;;;;;;5031026;28;20038;-72
2021/08/20 11:33:25;;;;;;;4.07;1.80;;;28.70;60.20;;;;;;5031469;28;20313;-72
2021/08/20 11:35:54;;;;;;;4.35;1.80;;;29.10;60.00;;;;;;5032219;28;20026;-72
2021/08/20 11:38:27;;;;;;;4.13;1.90;;;29.70;59.00;;;;;;5039214;28;20087;-71
2021/08/20 11:40:53;;;;;;;7.63;2.17;;;29.90;57.60;;;;;;5037265;28;20045;-72
2021/08/20 11:43:19;;;;;;;4.03;1.90;;;30.20;57.00;;;;;;5042904;28;20072;-71
2021/08/20 11:45:45;;;;;;;3.65;1.70;;;29.90;59.80;;;;;;5038641;28;20057;-72
2021/08/20 11:48:11;;;;;;;4.30;1.95;;;30.00;57.30;;;;;;5038999;28;20040;-71
2021/08/20 11:50:37;;;;;;;3.72;1.90;;;29.80;59.80;;;;;;5021581;28;20026;-72
2021/08/20 11:53:08;;;;;;;4.25;1.88;;;29.60;59.20;;;;;;5021178;28;20116;-72
2021/08/20 11:55:34;;;;;;;4.10;1.92;;;29.60;59.20;;;;;;5034825;28;20032;-72
2021/08/20 11:58:00;;;;;;;3.13;1.48;;;29.70;58.40;;;;;;5035370;28;20406;-72
2021/08/20 12:00:37;;;;;;;6.28;1.85;;;29.70;58.00;;;;;;5037367;28;20026;-72
2021/08/20 12:03:07;;;;;;;3.65;1.83;;;28.90;58.00;;;;;;5038760;28;20025;-72
2021/08/20 12:05:32;;;;;;;4.45;2.22;;;27.60;59.40;;;;;;5034793;28;20040;-72
2021/08/20 12:08:11;;;;;;;4.60;2.10;;;27.30;60.50;;;;;;5036924;28;20017;-72
2021/08/20 12:10:37;;;;;;;5.20;2.30;;;27.50;60.90;;;;;;5028936;28;20311;-74
2021/08/20 12:13:03;;;;;;;5.53;2.75;;;27.70;60.80;;;;;;5038534;28;20033;-72
2021/08/20 12:15:29;;;;;;;7.28;2.20;;;27.50;60.50;;;;;;5034282;28;20036;-72
2021/08/20 12:18:27;;;;;;;4.13;1.95;;;26.70;61.10;;;;;;5038397;28;20025;-72
2021/08/20 12:20:57;;;;;;;4.88;2.00;;;25.70;63.80;;;;;;5030256;28;20057;-72
2021/08/20 12:23:23;;;;;;;5.05;2.30;;;25.60;64.40;;;;;;5031879;28;20053;-72
2021/08/20 12:25:49;;;;;;;5.70;2.08;;;26.20;63.90;;;;;;5035219;28;20382;-72
2021/08/20 12:28:19;;;;;;;4.18;1.92;;;26.70;63.40;;;;;;5037938;28;20026;-72
2021/08/20 12:30:47;;;;;;;3.83;1.80;;;26.80;64.60;;;;;;5038069;28;20026;-73
2021/08/20 12:33:13;;;;;;;4.13;2.03;;;27.10;63.40;;;;;;5038244;28;20025;-72
2021/08/20 12:35:49;;;;;;;7.50;2.97;;;27.20;63.90;;;;;;5037158;28;20037;-72
2021/08/20 12:38:20;;;;;;;4.20;2.08;;;27.40;62.30;;;;;;5037911;28;20032;-72
2021/08/20 12:40:55;;;;;;;4.18;2.15;;;26.90;62.10;;;;;;5036696;28;20044;-72
2021/08/20 12:43:32;;;;;;;4.70;2.22;;;26.80;62.50;;;;;;5037526;28;20040;-72
2021/08/20 12:46:02;;;;;;;5.90;2.17;;;26.90;60.90;;;;;;5037537;28;20037;-72
2021/08/20 12:48:28;;;;;;;4.43;2.00;;;26.70;61.60;;;;;;5037726;28;20021;-73
2021/08/20 12:51:02;;;;;;;4.85;2.10;;;26.00;63.00;;;;;;5022876;28;20028;-72